CYQY

Sydney / J.A. Douglas McCurdy Airport

Sydney, Nova Scotia, Canada
TAF CYQY 251142Z 2512/2524 32005KT P6SM SKC BECMG 2512/2514 34010KT FM251800 02008KT P6SM SKC BECMG 2520/2522 19009KT RMK NXT FCST BY 251800Z
Issued Valid From Valid To
Sep-25 @ 11:42 UTC
(5 hours ago)
Sep-25 @ 12:00 UTC
(5 hours ago)
Sep-26 @ 00:00 UTC
(in 7 hours)
Sep-25 @ 12:00 to Sep-26 @ 00:00
TAF CYQY 251142Z 2512/2524 32005KT P6SM SKC
Wind Visibility Clouds
320° at 5 knots Greater than 6 miles
  • Clear skies
Becoming Sep-25 @ 12:00 to Sep-25 @ 18:00
BECMG 2512/2514 34010KT
Wind Visibility Clouds
340° at 10 knots Greater than 6 miles
  • Clear skies
From Sep-25 @ 18:00 to Sep-25 @ 20:00
FM251800 02008KT P6SM SKC
Wind Visibility Clouds
20° at 8 knots Greater than 6 miles
  • Clear skies
Becoming Sep-25 @ 20:00 to Sep-26 @ 00:00
BECMG 2520/2522 19009KT RMK NXT FCST BY 251800Z
Wind Visibility Clouds
190° at 9 knots Greater than 6 miles
  • Clear skies
TAF CYQY 251142Z 2512/2524 32005KT P6SM SKC BECMG 2512/2514 34010KT FM251800 02008KT P6SM SKC BECMG 2520/2522 19009KT RMK NXT FCST BY 251800Z
Issued Sep-25 @ 11:42 UTC
(5 hours ago)
Valid From Sep-25 @ 12:00 UTC
(5 hours ago)
Valid To Sep-26 @ 00:00 UTC
(in 7 hours)
Sep-25 @ 12:00 - Sep-26 @ 00:00
Wind Visibility
320° at 5 knots Greater than 6 miles
Clouds
  • Clear skies
Becoming Sep-25 @ 12:00 - Sep-25 @ 18:00
Wind Visibility
340° at 10 knots Greater than 6 miles
Clouds
  • Clear skies
From Sep-25 @ 18:00 - Sep-25 @ 20:00
Wind Visibility
20° at 8 knots Greater than 6 miles
Clouds
  • Clear skies
Becoming Sep-25 @ 20:00 - Sep-26 @ 00:00
Wind Visibility
190° at 9 knots Greater than 6 miles
Clouds
  • Clear skies